createdAt,value
2022-10-08T00:01:30.085Z,0
2022-10-08T00:03:31.564Z,0
2022-10-08T00:05:32.584Z,0
2022-10-08T00:07:34.030Z,0
2022-10-08T00:09:35.227Z,0
2022-10-08T00:11:36.288Z,0
2022-10-08T00:13:37.286Z,0
2022-10-08T00:15:38.634Z,0
2022-10-08T00:17:40.017Z,0
2022-10-08T00:19:42.011Z,0
2022-10-08T00:21:43.147Z,0
2022-10-08T00:23:44.477Z,0
2022-10-08T00:25:45.607Z,0
2022-10-08T00:27:46.529Z,0
2022-10-08T00:29:48.257Z,0
2022-10-08T00:31:49.297Z,0
2022-10-08T00:33:50.201Z,0
2022-10-08T00:35:51.436Z,0
2022-10-08T00:37:52.599Z,0
2022-10-08T00:39:53.918Z,0
2022-10-08T00:41:55.300Z,0
2022-10-08T00:43:57.163Z,0
2022-10-08T00:45:58.704Z,0
2022-10-08T00:47:59.579Z,0
2022-10-08T00:50:01.018Z,0
2022-10-08T00:52:01.978Z,0
2022-10-08T00:54:03.701Z,0
2022-10-08T00:56:05.546Z,0
2022-10-08T00:58:07.215Z,0
2022-10-08T01:00:09.028Z,0
2022-10-08T01:02:10.415Z,0
2022-10-08T01:04:11.809Z,0
2022-10-08T01:06:13.542Z,0
2022-10-08T01:08:14.473Z,0
2022-10-08T01:10:15.443Z,0
2022-10-08T01:12:16.501Z,0
2022-10-08T01:14:18.348Z,0
2022-10-08T01:16:19.727Z,0
2022-10-08T01:18:20.691Z,0
2022-10-08T01:20:21.998Z,0
2022-10-08T01:24:25.241Z,0
2022-10-08T01:26:26.615Z,0
2022-10-08T01:28:28.487Z,0
2022-10-08T01:30:29.605Z,0
2022-10-08T01:34:33.105Z,0
2022-10-08T01:36:34.016Z,0
2022-10-08T01:38:35.084Z,0
2022-10-08T01:40:36.616Z,0
2022-10-08T01:42:38.345Z,0
2022-10-08T01:44:39.348Z,0
2022-10-08T01:46:40.816Z,0
2022-10-08T01:48:42.072Z,0
2022-10-08T01:50:43.797Z,0
2022-10-08T01:52:45.879Z,0
2022-10-08T01:54:47.223Z,0
2022-10-08T01:56:48.194Z,0.28
2022-10-08T01:58:49.299Z,0
2022-10-08T02:02:51.932Z,0
2022-10-08T02:04:53.202Z,0
2022-10-08T02:06:54.962Z,0
2022-10-08T02:08:56.200Z,0
2022-10-08T02:10:57.099Z,0
2022-10-08T02:12:58.762Z,0
2022-10-08T02:17:02.229Z,0
2022-10-08T02:19:03.283Z,0
2022-10-08T02:21:05.037Z,0
2022-10-08T02:23:06.859Z,0
2022-10-08T02:25:08.699Z,0
2022-10-08T02:27:09.903Z,0
2022-10-08T02:29:11.166Z,0.842
2022-10-08T02:31:12.883Z,0
2022-10-08T02:33:14.172Z,0
2022-10-08T02:35:15.254Z,0
2022-10-08T02:37:16.487Z,0
2022-10-08T02:39:17.458Z,0.702
2022-10-08T02:41:18.651Z,0.561
2022-10-08T02:43:19.891Z,0
2022-10-08T02:45:20.861Z,0
2022-10-08T02:47:22.600Z,0
2022-10-08T02:49:24.141Z,0
2022-10-08T02:51:25.258Z,0
2022-10-08T02:53:27.030Z,0
2022-10-08T02:55:28.635Z,0
2022-10-08T02:57:30.101Z,0
2022-10-08T02:59:31.324Z,0
2022-10-08T03:01:32.753Z,0
2022-10-08T03:03:33.811Z,0
2022-10-08T03:05:34.761Z,0
2022-10-08T03:07:36.143Z,0
2022-10-08T03:09:37.706Z,0
2022-10-08T03:11:38.821Z,0
2022-10-08T03:15:41.176Z,0.14
2022-10-08T03:17:43.124Z,0.14
2022-10-08T03:19:44.522Z,1.404
2022-10-08T03:21:46.248Z,0
2022-10-08T03:23:47.650Z,0.14
2022-10-08T03:25:49.351Z,0.14
2022-10-08T03:27:50.977Z,0
2022-10-08T03:29:52.599Z,0
2022-10-08T03:31:54.377Z,0
2022-10-08T03:33:55.622Z,2.667
2022-10-08T03:35:56.492Z,1.684
2022-10-08T03:37:58.221Z,1.404
2022-10-08T03:39:59.888Z,0.702
2022-10-08T03:42:01.176Z,0
2022-10-08T03:44:02.537Z,3.931
2022-10-08T03:48:05.467Z,0
2022-10-08T03:50:06.717Z,0
2022-10-08T03:52:08.119Z,0.982
2022-10-08T03:54:09.821Z,0.561
2022-10-08T03:58:12.632Z,0.28
2022-10-08T04:00:14.031Z,2.386
2022-10-08T04:02:15.374Z,0
2022-10-08T04:04:16.400Z,0.14
2022-10-08T04:06:17.941Z,0
2022-10-08T04:08:19.177Z,0.982
2022-10-08T04:10:20.212Z,0
2022-10-08T04:12:21.636Z,0.702
2022-10-08T04:14:22.789Z,0.842
2022-10-08T04:16:23.728Z,0
2022-10-08T04:18:25.476Z,0
2022-10-08T04:20:27.116Z,0
2022-10-08T04:22:28.019Z,2.667
2022-10-08T04:24:29.424Z,0
2022-10-08T04:26:31.195Z,0
2022-10-08T04:30:33.346Z,0
2022-10-08T04:32:34.777Z,0.421
2022-10-08T04:34:35.733Z,1.123
2022-10-08T04:36:37.249Z,0
2022-10-08T04:38:38.189Z,0
2022-10-08T04:40:39.574Z,1.123
2022-10-08T04:41:23.374Z,1.404
2022-10-08T04:43:24.594Z,0.561
2022-10-08T04:45:25.673Z,0.28
2022-10-08T04:47:26.819Z,3.088
2022-10-08T04:49:28.492Z,0.28
2022-10-08T04:51:30.254Z,0
2022-10-08T04:53:31.482Z,0
2022-10-08T04:55:33.230Z,0
2022-10-08T04:57:34.918Z,0
2022-10-08T04:59:35.856Z,0
2022-10-08T05:01:37.656Z,0
2022-10-08T05:03:38.988Z,0
2022-10-08T05:05:40.039Z,0
2022-10-08T05:07:41.497Z,0
2022-10-08T05:09:42.417Z,0
2022-10-08T05:11:43.514Z,0
2022-10-08T05:13:45.042Z,0
2022-10-08T05:15:46.969Z,0
2022-10-08T05:17:48.644Z,0
2022-10-08T05:19:49.639Z,0.702
2022-10-08T05:23:52.179Z,0
2022-10-08T05:25:53.173Z,0
2022-10-08T05:27:54.812Z,0
2022-10-08T05:31:58.273Z,0
2022-10-08T05:34:00.031Z,0
2022-10-08T05:36:01.423Z,0
2022-10-08T05:38:03.232Z,0
2022-10-08T05:40:04.817Z,0
2022-10-08T05:42:05.731Z,0
2022-10-08T05:44:06.831Z,0
2022-10-08T05:46:08.549Z,0
2022-10-08T05:48:09.512Z,0
2022-10-08T05:50:10.778Z,0.28
2022-10-08T05:52:11.983Z,0
2022-10-08T05:56:14.294Z,0
2022-10-08T05:58:16.041Z,0.14
2022-10-08T06:00:17.430Z,0.702
2022-10-08T06:02:19.173Z,0
2022-10-08T06:06:21.895Z,0.561
2022-10-08T06:08:23.461Z,0.28
2022-10-08T06:10:24.860Z,1.544
2022-10-08T06:12:26.215Z,0
2022-10-08T06:14:28.075Z,0
2022-10-08T06:16:29.636Z,0.982
2022-10-08T06:18:30.584Z,3.369
2022-10-08T06:22:32.801Z,1.825
2022-10-08T06:24:33.794Z,2.386
2022-10-08T06:26:35.860Z,0.702
2022-10-08T06:28:36.534Z,0
2022-10-08T06:30:37.849Z,0
2022-10-08T06:32:39.047Z,0
2022-10-08T06:34:40.748Z,0.842
2022-10-08T06:36:41.743Z,0.702
2022-10-08T06:38:43.387Z,0.982
2022-10-08T06:40:44.998Z,0
2022-10-08T06:42:46.377Z,0
2022-10-08T06:44:47.106Z,2.527
2022-10-08T06:46:48.615Z,0.702
2022-10-08T06:48:49.550Z,2.667
2022-10-08T06:50:51.336Z,1.404
2022-10-08T06:52:52.894Z,0.982
2022-10-08T06:54:53.921Z,0.28
2022-10-08T06:56:55.515Z,2.667
2022-10-08T06:58:57.196Z,0
2022-10-08T07:00:58.779Z,1.965
2022-10-08T07:05:01.402Z,2.948
2022-10-08T07:07:03.223Z,2.667
2022-10-08T07:09:04.986Z,0.561
2022-10-08T07:11:06.234Z,2.948
2022-10-08T07:15:08.458Z,0.421
2022-10-08T07:17:09.683Z,2.808
2022-10-08T07:19:11.413Z,2.527
2022-10-08T07:21:13.034Z,3.79
2022-10-08T07:23:14.862Z,4.071
2022-10-08T07:25:16.233Z,0.28
2022-10-08T07:27:17.766Z,2.667
2022-10-08T07:29:19.669Z,0.421
2022-10-08T07:31:20.871Z,0.842
2022-10-08T07:33:22.138Z,1.123
2022-10-08T07:35:23.346Z,3.229
2022-10-08T07:37:24.955Z,0.28
2022-10-08T07:39:26.322Z,0.421
2022-10-08T07:41:27.399Z,2.386
2022-10-08T07:43:28.666Z,1.684
2022-10-08T07:47:32.159Z,4.212
2022-10-08T07:49:33.690Z,2.106
2022-10-08T07:51:34.686Z,1.825
2022-10-08T07:55:37.581Z,2.808
2022-10-08T07:57:38.648Z,3.229
2022-10-08T07:59:40.116Z,1.965
2022-10-08T08:01:41.471Z,4.212
2022-10-08T08:03:43.215Z,0
2022-10-08T08:05:44.293Z,0
2022-10-08T08:07:46.736Z,3.229
2022-10-08T08:09:46.415Z,1.123
2022-10-08T08:13:48.947Z,1.263
2022-10-08T08:15:50.258Z,5.335
2022-10-08T08:17:51.337Z,1.123
2022-10-08T08:19:52.180Z,0.421
2022-10-08T08:21:53.363Z,0.702
2022-10-08T08:23:54.474Z,3.088
2022-10-08T08:25:55.967Z,0.702
2022-10-08T08:27:56.969Z,0.702
2022-10-08T08:29:58.063Z,1.965
2022-10-08T08:31:59.122Z,1.123
2022-10-08T08:34:00.593Z,0.421
2022-10-08T08:36:01.994Z,2.386
2022-10-08T08:38:03.863Z,1.825
2022-10-08T08:40:05.557Z,2.948
2022-10-08T08:42:07.054Z,2.948
2022-10-08T08:44:08.230Z,1.263
2022-10-08T08:46:09.572Z,5.896
2022-10-08T08:48:10.399Z,6.598
2022-10-08T08:50:12.160Z,0.561
2022-10-08T08:52:13.281Z,2.948
2022-10-08T08:54:14.336Z,1.123
2022-10-08T08:56:15.339Z,0.842
2022-10-08T08:58:16.251Z,4.212
2022-10-08T09:00:17.423Z,5.896
2022-10-08T09:02:19.161Z,6.177
2022-10-08T09:04:20.711Z,4.212
2022-10-08T09:10:24.805Z,6.598
2022-10-08T09:12:26.461Z,3.51
2022-10-08T09:14:28.014Z,2.106
2022-10-08T09:16:29.244Z,1.684
2022-10-08T09:18:30.269Z,4.773
2022-10-08T09:20:31.666Z,4.492
2022-10-08T09:22:32.641Z,6.739
2022-10-08T09:24:33.632Z,3.088
2022-10-08T09:26:34.503Z,5.756
2022-10-08T09:28:36.352Z,3.79
2022-10-08T09:30:37.960Z,2.246
2022-10-08T09:32:38.988Z,3.931
2022-10-08T09:34:40.761Z,3.088
2022-10-08T09:36:41.979Z,3.65
2022-10-08T09:38:43.192Z,1.684
2022-10-08T09:40:44.248Z,5.616
2022-10-08T09:42:45.660Z,5.194
2022-10-08T09:44:46.305Z,4.212
2022-10-08T09:46:47.697Z,7.862
2022-10-08T09:48:49.230Z,2.667
2022-10-08T09:50:50.302Z,6.177
2022-10-08T09:52:52.073Z,6.037
2022-10-08T09:54:53.437Z,2.527
2022-10-08T09:58:56.183Z,4.492
2022-10-08T10:00:57.411Z,5.616
2022-10-08T10:02:59.101Z,3.088
2022-10-08T10:05:00.395Z,4.492
2022-10-08T10:07:01.303Z,4.492
2022-10-08T10:09:02.606Z,5.054
2022-10-08T10:11:04.193Z,5.054
2022-10-08T10:13:06.002Z,4.352
2022-10-08T10:15:07.524Z,7.441
2022-10-08T10:17:08.791Z,4.352
2022-10-08T10:19:10.005Z,3.931
2022-10-08T10:21:11.415Z,0.702
2022-10-08T10:23:12.651Z,3.51
2022-10-08T10:25:13.581Z,9.547
2022-10-08T10:27:15.334Z,3.369
2022-10-08T10:31:18.785Z,3.931
2022-10-08T10:33:20.078Z,5.054
2022-10-08T10:35:21.568Z,6.739
2022-10-08T10:41:25.397Z,2.246
2022-10-08T10:43:26.838Z,2.808
2022-10-08T10:45:28.523Z,3.229
2022-10-08T10:47:31.932Z,0.842
2022-10-08T10:49:30.379Z,2.667
2022-10-08T10:51:31.445Z,5.335
2022-10-08T10:53:32.686Z,4.071
2022-10-08T10:55:33.635Z,1.123
2022-10-08T11:01:38.009Z,2.948
2022-10-08T11:03:39.814Z,3.229
2022-10-08T11:05:40.964Z,4.633
2022-10-08T11:07:42.578Z,6.318
2022-10-08T11:09:43.942Z,3.51
2022-10-08T11:11:45.704Z,1.965
2022-10-08T11:13:46.974Z,3.65
2022-10-08T11:15:48.141Z,2.808
2022-10-08T11:17:49.303Z,4.492
2022-10-08T11:19:50.328Z,2.527
2022-10-08T11:21:51.628Z,1.825
2022-10-08T11:23:53.103Z,2.246
2022-10-08T11:26:15.271Z,3.79
2022-10-08T11:26:38.084Z,2.106
2022-10-08T11:28:39.615Z,2.667
2022-10-08T11:30:41.396Z,0.561
2022-10-08T11:32:42.712Z,7.16
2022-10-08T11:34:44.083Z,5.335
2022-10-08T11:36:45.138Z,4.212
2022-10-08T11:38:46.951Z,6.598
2022-10-08T11:40:47.932Z,5.896
2022-10-08T11:42:49.150Z,1.825
2022-10-08T11:44:50.297Z,6.177
2022-10-08T11:46:51.384Z,5.054
2022-10-08T11:48:53.022Z,7.441
2022-10-08T11:50:53.954Z,6.879
2022-10-08T11:52:55.147Z,2.808
2022-10-08T11:54:56.483Z,5.616
2022-10-08T11:56:57.337Z,7.16
2022-10-08T11:58:58.535Z,6.318
2022-10-08T12:00:59.862Z,2.948
2022-10-08T12:03:00.918Z,5.054
2022-10-08T12:05:02.038Z,2.246
2022-10-08T12:07:03.191Z,6.739
2022-10-08T12:09:04.787Z,0.982
2022-10-08T12:11:05.989Z,3.369
2022-10-08T12:13:07.211Z,4.633
2022-10-08T12:17:09.864Z,3.229
2022-10-08T12:19:11.477Z,1.684
2022-10-08T12:21:13.282Z,1.825
2022-10-08T12:23:14.140Z,2.386
2022-10-08T12:27:16.732Z,4.492
2022-10-08T12:29:18.157Z,5.616
2022-10-08T12:31:19.849Z,1.965
2022-10-08T12:33:21.355Z,1.544
2022-10-08T12:35:23.072Z,1.123
2022-10-08T12:37:24.454Z,0.28
2022-10-08T12:39:26.007Z,5.756
2022-10-08T12:41:27.108Z,2.527
2022-10-08T12:43:28.330Z,0.28
2022-10-08T12:45:29.425Z,1.263
2022-10-08T12:47:30.457Z,1.404
2022-10-08T12:49:31.405Z,1.684
2022-10-08T12:51:32.267Z,3.79
2022-10-08T12:53:33.604Z,2.246
2022-10-08T12:55:37.969Z,1.965
2022-10-08T12:57:36.271Z,2.808
2022-10-08T12:59:37.485Z,1.965
2022-10-08T13:01:38.528Z,0
2022-10-08T13:03:39.366Z,3.51
2022-10-08T13:05:40.708Z,2.527
2022-10-08T13:07:42.522Z,4.352
2022-10-08T13:09:44.162Z,2.106
2022-10-08T13:11:45.032Z,1.404
2022-10-08T13:13:46.437Z,3.51
2022-10-08T13:15:47.750Z,5.475
2022-10-08T13:17:49.061Z,0.842
2022-10-08T13:19:49.708Z,1.123
2022-10-08T13:21:51.501Z,2.246
2022-10-08T13:23:52.913Z,1.544
2022-10-08T13:25:54.316Z,3.931
2022-10-08T13:27:55.947Z,3.369
2022-10-08T13:29:57.448Z,0.842
2022-10-08T13:31:58.963Z,1.825
2022-10-08T13:33:59.937Z,1.123
2022-10-08T13:36:01.587Z,0.842
2022-10-08T13:38:02.680Z,1.544
2022-10-08T13:40:03.757Z,2.246
2022-10-08T13:42:05.402Z,6.318
2022-10-08T13:44:06.571Z,5.616
2022-10-08T13:46:07.460Z,1.263
2022-10-08T13:48:09.056Z,0.842
2022-10-08T13:50:10.587Z,1.825
2022-10-08T13:52:11.997Z,2.386
2022-10-08T13:54:13.640Z,1.684
2022-10-08T13:58:16.476Z,0.842
2022-10-08T14:00:17.997Z,1.825
2022-10-08T14:02:19.400Z,4.212
2022-10-08T14:04:20.361Z,2.667
2022-10-08T14:08:22.772Z,1.544
2022-10-08T14:10:23.678Z,6.739
2022-10-08T14:12:25.025Z,1.965
2022-10-08T14:14:26.156Z,2.808
2022-10-08T14:16:28.090Z,2.808
2022-10-08T14:20:30.985Z,2.106
2022-10-08T14:22:32.400Z,5.054
2022-10-08T14:24:33.704Z,0
2022-10-08T14:26:35.235Z,2.667
2022-10-08T14:28:36.193Z,1.825
2022-10-08T14:30:37.879Z,0.702
2022-10-08T14:32:38.789Z,3.65
2022-10-08T14:34:39.685Z,4.633
2022-10-08T14:36:41.460Z,0.14
2022-10-08T14:40:44.286Z,1.825
2022-10-08T14:42:46.001Z,3.229
2022-10-08T14:44:47.078Z,0.28
2022-10-08T14:46:47.935Z,1.123
2022-10-08T14:48:48.821Z,3.088
2022-10-08T14:50:50.385Z,3.369
2022-10-08T14:52:52.047Z,2.386
2022-10-08T14:54:53.028Z,0
2022-10-08T14:56:54.288Z,3.369
2022-10-08T14:58:55.338Z,4.633
2022-10-08T15:00:56.251Z,1.684
2022-10-08T15:02:57.464Z,4.352
2022-10-08T15:04:58.783Z,1.123
2022-10-08T15:07:00.309Z,2.386
2022-10-08T15:09:02.035Z,0
2022-10-08T15:11:02.987Z,2.667
2022-10-08T15:13:04.649Z,1.684
2022-10-08T15:15:05.536Z,1.123
2022-10-08T15:17:07.113Z,0.28
2022-10-08T15:19:08.139Z,0.14
2022-10-08T15:21:10.664Z,0.14
2022-10-08T15:23:11.824Z,1.544
2022-10-08T15:25:13.269Z,0.842
2022-10-08T15:27:17.308Z,0.561
2022-10-08T15:29:15.746Z,0.14
2022-10-08T15:31:17.295Z,0.28
2022-10-08T15:33:18.457Z,0.982
2022-10-08T15:35:19.478Z,1.544
2022-10-08T15:37:20.572Z,0.982
2022-10-08T15:39:22.115Z,0.842
2022-10-08T15:41:23.495Z,1.123
2022-10-08T15:43:25.216Z,0.702
2022-10-08T15:45:26.778Z,0.842
2022-10-08T15:49:29.000Z,0
2022-10-08T15:51:29.845Z,1.263
2022-10-08T15:53:31.143Z,2.106
2022-10-08T15:55:32.466Z,1.123
2022-10-08T15:57:33.992Z,1.404
2022-10-08T15:59:35.141Z,0.28
2022-10-08T16:01:36.902Z,0.28
2022-10-08T16:03:37.906Z,0.28
2022-10-08T16:05:38.853Z,0.14
2022-10-08T16:07:40.022Z,0
2022-10-08T16:09:41.324Z,0
2022-10-08T16:11:42.990Z,2.246
2022-10-08T16:13:44.629Z,0.842
2022-10-08T16:15:45.751Z,0
2022-10-08T16:17:46.866Z,0.421
2022-10-08T16:19:48.447Z,0.421
2022-10-08T16:21:50.091Z,0.14
2022-10-08T16:23:51.357Z,0.14
2022-10-08T16:25:52.471Z,0
2022-10-08T16:27:54.153Z,0
2022-10-08T16:29:55.249Z,0
2022-10-08T16:31:57.070Z,0
2022-10-08T16:33:58.215Z,0
2022-10-08T16:35:59.487Z,0
2022-10-08T16:38:00.465Z,0
2022-10-08T16:40:01.852Z,0
2022-10-08T16:42:02.865Z,0
2022-10-08T16:44:06.464Z,0
2022-10-08T16:46:05.854Z,0
2022-10-08T16:48:06.814Z,0
2022-10-08T16:50:07.865Z,0
2022-10-08T16:52:09.484Z,0
2022-10-08T16:54:11.412Z,0
2022-10-08T16:56:12.342Z,0
2022-10-08T16:58:13.483Z,0
2022-10-08T17:00:15.208Z,0
2022-10-08T17:02:16.361Z,0
2022-10-08T17:04:17.272Z,0
2022-10-08T17:06:19.108Z,0
2022-10-08T17:08:20.458Z,0
2022-10-08T17:10:22.082Z,0
2022-10-08T17:12:23.532Z,0
2022-10-08T17:14:24.657Z,0
2022-10-08T17:16:26.094Z,0
2022-10-08T17:20:28.682Z,0
2022-10-08T17:22:29.748Z,0
2022-10-08T17:24:30.866Z,0
2022-10-08T17:26:32.775Z,0
2022-10-08T17:28:34.610Z,0
2022-10-08T17:30:36.328Z,0
2022-10-08T17:32:38.009Z,0
2022-10-08T17:34:39.267Z,0
2022-10-08T17:36:41.141Z,0
2022-10-08T17:38:42.714Z,0
2022-10-08T17:40:44.569Z,0
2022-10-08T17:42:46.191Z,0
2022-10-08T17:44:47.178Z,0
2022-10-08T17:46:48.148Z,0
2022-10-08T17:48:49.295Z,0
2022-10-08T17:50:50.684Z,0
2022-10-08T17:52:51.701Z,0
2022-10-08T17:54:53.600Z,0.982
2022-10-08T17:56:55.037Z,0
2022-10-08T17:58:56.695Z,0
2022-10-08T18:00:58.269Z,0.28
2022-10-08T18:02:59.609Z,0.421
2022-10-08T18:05:01.346Z,0
2022-10-08T18:07:03.568Z,0
2022-10-08T18:09:04.324Z,0
2022-10-08T18:11:06.080Z,0
2022-10-08T18:13:07.609Z,0
2022-10-08T18:13:51.495Z,0
2022-10-08T18:15:52.702Z,0
2022-10-08T18:17:53.916Z,0
2022-10-08T18:19:55.093Z,0
2022-10-08T18:21:56.461Z,0
2022-10-08T18:23:58.221Z,0
2022-10-08T18:25:59.912Z,0
2022-10-08T18:28:01.318Z,0
2022-10-08T18:30:02.988Z,0
2022-10-08T18:32:04.285Z,0
2022-10-08T18:34:05.665Z,0
2022-10-08T18:36:07.473Z,0
2022-10-08T18:38:08.459Z,0
2022-10-08T18:40:09.805Z,0
2022-10-08T18:42:10.941Z,0
2022-10-08T18:44:12.354Z,0
2022-10-08T18:46:14.319Z,0
2022-10-08T18:48:15.727Z,0
2022-10-08T18:50:16.921Z,0
2022-10-08T18:52:21.480Z,0
2022-10-08T18:54:20.453Z,0
2022-10-08T18:56:22.218Z,0
2022-10-08T18:58:23.216Z,0
2022-10-08T19:00:24.663Z,0
2022-10-08T19:02:26.135Z,0
2022-10-08T19:04:27.968Z,0
2022-10-08T19:06:29.741Z,0
2022-10-08T19:08:31.234Z,0
2022-10-08T19:10:33.189Z,0
2022-10-08T19:12:34.596Z,0
2022-10-08T19:14:35.937Z,0
2022-10-08T19:16:37.807Z,0
2022-10-08T19:18:39.054Z,0
2022-10-08T19:20:40.409Z,0
2022-10-08T19:22:42.090Z,0
2022-10-08T19:24:43.633Z,0
2022-10-08T19:26:45.309Z,0
2022-10-08T19:28:47.198Z,0
2022-10-08T19:30:48.186Z,0
2022-10-08T19:32:50.120Z,0
2022-10-08T19:34:51.401Z,0
2022-10-08T19:36:53.089Z,0
2022-10-08T19:38:54.506Z,0
2022-10-08T19:40:56.282Z,0
2022-10-08T19:42:57.963Z,0
2022-10-08T19:44:59.541Z,0
2022-10-08T19:47:02.305Z,0
2022-10-08T19:49:02.615Z,0
2022-10-08T19:51:04.552Z,0
2022-10-08T19:53:06.026Z,0
2022-10-08T19:55:07.292Z,0
2022-10-08T19:57:09.249Z,0
2022-10-08T19:59:10.498Z,0
2022-10-08T20:01:11.621Z,0
2022-10-08T20:03:12.701Z,0
2022-10-08T20:05:13.987Z,0
2022-10-08T20:07:15.298Z,0
2022-10-08T20:09:16.281Z,0
2022-10-08T20:11:18.090Z,0
2022-10-08T20:13:19.878Z,0
2022-10-08T20:15:21.148Z,0
2022-10-08T20:17:22.822Z,0
2022-10-08T20:21:25.022Z,0
2022-10-08T20:23:27.014Z,0
2022-10-08T20:25:28.249Z,0
2022-10-08T20:27:30.026Z,0
2022-10-08T20:29:31.359Z,0
2022-10-08T20:31:32.293Z,0
2022-10-08T20:33:33.588Z,0
2022-10-08T20:35:35.424Z,0
2022-10-08T20:37:36.860Z,0
2022-10-08T20:39:38.216Z,0
2022-10-08T20:41:39.691Z,0
2022-10-08T20:43:41.630Z,0
2022-10-08T20:45:43.377Z,0
2022-10-08T20:47:45.322Z,0
2022-10-08T20:49:46.298Z,0
2022-10-08T20:51:48.136Z,0
2022-10-08T20:53:50.096Z,0
2022-10-08T20:55:51.610Z,0
2022-10-08T20:57:52.702Z,0
2022-10-08T20:59:54.351Z,0
2022-10-08T21:01:56.102Z,0
2022-10-08T21:03:58.008Z,0
2022-10-08T21:05:59.209Z,0
2022-10-08T21:08:00.608Z,0
2022-10-08T21:10:02.582Z,0
2022-10-08T21:14:05.287Z,0
2022-10-08T21:16:07.264Z,0
2022-10-08T21:18:08.556Z,0
2022-10-08T21:20:10.469Z,0
2022-10-08T21:22:12.271Z,0
2022-10-08T21:24:13.826Z,0
2022-10-08T21:26:15.305Z,0
2022-10-08T21:28:16.947Z,0
2022-10-08T21:30:18.403Z,0
2022-10-08T21:32:19.645Z,0
2022-10-08T21:34:20.747Z,0
2022-10-08T21:36:21.872Z,0
2022-10-08T21:38:23.213Z,0
2022-10-08T21:40:25.177Z,0
2022-10-08T21:42:26.478Z,0
2022-10-08T21:46:29.140Z,0
2022-10-08T21:48:30.585Z,0
2022-10-08T21:50:35.904Z,0
2022-10-08T21:52:33.875Z,0
2022-10-08T21:56:36.698Z,0
2022-10-08T21:58:37.980Z,0
2022-10-08T22:00:39.621Z,0
2022-10-08T22:02:41.197Z,0
2022-10-08T22:04:42.756Z,0
2022-10-08T22:06:44.264Z,0
2022-10-08T22:08:46.088Z,0
2022-10-08T22:10:47.477Z,0
2022-10-08T22:12:49.118Z,0
2022-10-08T22:14:50.071Z,0
2022-10-08T22:16:51.954Z,0
2022-10-08T22:18:53.901Z,0
2022-10-08T22:20:54.977Z,0
2022-10-08T22:22:56.757Z,0
2022-10-08T22:24:57.754Z,0
2022-10-08T22:29:00.875Z,0
2022-10-08T22:31:01.960Z,0
2022-10-08T22:33:03.562Z,0
2022-10-08T22:35:05.467Z,0
2022-10-08T22:39:08.260Z,0
2022-10-08T22:41:09.996Z,0
2022-10-08T22:43:11.430Z,0
2022-10-08T22:45:12.803Z,0
2022-10-08T22:47:14.158Z,0
2022-10-08T22:49:15.314Z,0
2022-10-08T22:51:16.319Z,0
2022-10-08T22:53:18.025Z,0
2022-10-08T22:55:19.824Z,0
2022-10-08T22:57:21.712Z,0
2022-10-08T22:59:23.694Z,0
2022-10-08T23:01:25.571Z,0
2022-10-08T23:03:27.226Z,0
2022-10-08T23:05:28.217Z,0
2022-10-08T23:07:29.469Z,0
2022-10-08T23:09:30.461Z,0
2022-10-08T23:11:31.524Z,0
2022-10-08T23:13:33.266Z,0
2022-10-08T23:15:34.912Z,0
2022-10-08T23:17:36.701Z,0
2022-10-08T23:19:38.017Z,0
2022-10-08T23:21:39.723Z,0
2022-10-08T23:23:40.155Z,0
2022-10-08T23:25:41.967Z,0
2022-10-08T23:27:43.897Z,0
2022-10-08T23:29:45.546Z,0
2022-10-08T23:31:46.679Z,0
2022-10-08T23:33:47.699Z,0
2022-10-08T23:35:48.963Z,0
2022-10-08T23:37:50.183Z,0
2022-10-08T23:39:54.401Z,0
2022-10-08T23:41:53.077Z,0
2022-10-08T23:43:54.538Z,0
2022-10-08T23:45:56.100Z,0
2022-10-08T23:47:57.643Z,0
2022-10-08T23:49:59.368Z,0
2022-10-08T23:52:00.683Z,0
2022-10-08T23:54:01.884Z,0
2022-10-08T23:56:03.250Z,0
2022-10-08T23:58:04.454Z,0
